Addy, WA (99101)

2:19 PM PDT on July 01, 2015 (GMT -0700)
APRSWXNET | | Change Station
CLOSE
Current Station
Personal Weather Station
Location: Rice, WA
Elevation: 2851 ft
Nearby Weather Stations

Elev 2851 ft 48.47 °N, 118.10 °W | Updated 28 minutes ago

Clear
Clear
85 °F
Feels Like 83 °F
N
8
Wind Variable Wind from West
Gusts 12.0 mph

Today
High -- | Low -- °F
--% Chance of Precip.
Yesterday
High -- | Low -- °F
Precip. -- in
4:54 AM 8:56 PM
Full, 100% visible
Pressure 29.96 in
Visibility 10.0 miles
Clouds Clear
Heat Index 83 °F
Dew Point 48 °F
Humidity 28%
Rainfall in
Snow Depth Not available.
UV 10 out of 12
Pollen 6.40 out of 12
Air Quality Not available.
Flu Activity Not available.
METAR KDEW 012053Z AUTO VRB03KT 10SM CLR 32/09 A3000 RMK AO2 SLP143 T03220094 58007

More Conditions Fewer Conditions

Pressure 29.96 in
Visibility 10.0 miles
Clouds Clear
Heat Index 83 °F
Dew Point 48 °F
Humidity 28%
Rainfall in
Snow Depth Not available.
UV 10 out of 12
Pollen 6.40 out of 12
Air Quality Not available.
Flu Activity Not available.
METAR KDEW 012053Z AUTO VRB03KT 10SM CLR 32/09 A3000 RMK AO2 SLP143 T03220094 58007

More Conditions Fewer Conditions

10-Day Weather Forecast

×

Almanac

Astronomy

Jul. 01, 2015 Rise Set
Actual Time
Civil Twilight
Nautical Twilight
Astronomical Twilight
Moon
Length of Visible Light
Length of Day
Tomorrow will be .
, % of the Moon is Illuminated

Today's Extremes

State Highs State Lows

Community

WunderPhotos

Upload Photos

1,834,286 photos uploaded!

WunderBlogs® & News

Nearby

Air Quality

  Air Quality AQ Index Pollutant
Not available.

Snow Depth

Station Depth Elevation

Earthquake Activity

City Distance Mag. Time & Date
Minimum magnitude displayed is 2.5.

Coastal Water Temperatures

Place Temperature

Stations

Nearby Weather Stations

Station Location Temp. Windchill Dew Point Humidity Wind Precip. Elev Updated Type